Time;durP1;ratioP1;P1;durP2;ratioP2;P2;SDS_P1;SDS_P2;PMS_P1;PMS_P2;Temp;Humidity;BMP_temperature;BMP_pressure;BME280_temperature;BME280_humidity;BME280_pressure;Samples;Min_cycle;Max_cycle;Signal;HPM_P1;HPM_P2
2023/08/30 00:00:45;;;;;;;20.52;4.80;;;21.20;72.50;;;;;;5136840;27;20085;-78
2023/08/30 00:06:04;;;;;;;16.98;4.75;;;21.20;73.00;;;;;;5439376;22;20056;-78
2023/08/30 00:08:30;;;;;;;18.17;4.65;;;21.20;72.20;;;;;;5035756;28;20041;-78
2023/08/30 00:10:58;;;;;;;20.17;4.93;;;21.20;72.00;;;;;;5035672;28;20041;-80
2023/08/30 00:13:25;;;;;;;14.23;4.55;;;21.30;72.30;;;;;;5018046;28;20470;-78
2023/08/30 00:15:51;;;;;;;14.90;4.50;;;21.20;71.90;;;;;;5052817;28;20073;-78
2023/08/30 00:18:18;;;;;;;17.23;4.63;;;21.10;72.00;;;;;;5035566;28;20072;-78
2023/08/30 00:20:44;;;;;;;15.93;4.38;;;21.10;72.10;;;;;;5045405;28;20026;-77
2023/08/30 00:23:10;;;;;;;14.40;4.00;;;21.10;72.20;;;;;;5055271;28;20055;-77
2023/08/30 00:25:36;;;;;;;18.48;4.38;;;21.20;72.10;;;;;;5054949;28;20492;-80
2023/08/30 00:28:02;;;;;;;15.80;4.82;;;21.10;72.20;;;;;;5055037;28;20041;-79
2023/08/30 00:30:27;;;;;;;16.67;3.95;;;21.10;72.20;;;;;;5058792;28;20022;-79
2023/08/30 00:32:53;;;;;;;17.70;4.75;;;21.10;72.00;;;;;;5053878;28;20120;-79
2023/08/30 00:35:19;;;;;;;16.33;4.05;;;21.10;72.80;;;;;;5055093;28;20037;-77
2023/08/30 00:37:44;;;;;;;12.40;3.65;;;21.10;71.90;;;;;;5054885;28;20112;-78
2023/08/30 00:40:10;;;;;;;16.92;4.07;;;21.10;71.90;;;;;;5054851;28;20032;-77
2023/08/30 00:42:36;;;;;;;16.92;4.25;;;21.20;71.90;;;;;;5054927;28;20052;-77
2023/08/30 00:45:03;;;;;;;15.85;4.20;;;21.20;72.50;;;;;;5054680;28;20480;-80
2023/08/30 00:47:29;;;;;;;16.60;4.35;;;21.20;72.00;;;;;;5054931;28;20037;-77
2023/08/30 00:49:54;;;;;;;15.77;4.28;;;21.20;72.00;;;;;;5054956;28;20032;-77
2023/08/30 00:52:20;;;;;;;14.35;4.53;;;21.20;71.90;;;;;;5054856;28;20036;-80
2023/08/30 00:54:46;;;;;;;17.27;4.85;;;21.20;71.80;;;;;;5049202;28;20047;-79
2023/08/30 00:57:12;;;;;;;17.27;4.70;;;21.20;71.60;;;;;;5034315;28;20029;-75
2023/08/30 00:59:38;;;;;;;20.25;4.47;;;21.20;71.80;;;;;;5016464;28;20431;-77
2023/08/30 01:02:05;;;;;;;18.80;4.15;;;21.20;71.80;;;;;;5034743;28;20036;-78
2023/08/30 01:04:30;;;;;;;16.77;4.20;;;21.10;71.80;;;;;;5034557;28;20108;-77
2023/08/30 01:06:57;;;;;;;12.95;4.05;;;21.00;72.10;;;;;;5034247;28;20084;-79
2023/08/30 01:09:25;;;;;;;17.73;4.40;;;21.00;72.20;;;;;;5034272;28;20026;-76
2023/08/30 01:12:08;;;;;;;15.82;3.95;;;21.10;72.20;;;;;;5034644;28;20033;-76
2023/08/30 01:14:57;;;;;;;15.48;4.43;;;21.10;72.90;;;;;;5033572;28;20057;-80
2023/08/30 01:17:24;;;;;;;19.55;4.50;;;21.10;72.30;;;;;;5034587;28;20061;-77
2023/08/30 01:20:00;;;;;;;14.55;4.80;;;21.10;72.50;;;;;;5034450;28;20144;-76
2023/08/30 01:22:32;;;;;;;16.95;5.18;;;21.10;72.40;;;;;;5033930;28;20033;-78
2023/08/30 01:25:09;;;;;;;14.48;4.32;;;21.10;72.70;;;;;;5018014;28;20041;-79
2023/08/30 01:27:37;;;;;;;17.98;4.28;;;21.20;72.40;;;;;;5039478;28;20079;-76
2023/08/30 01:30:06;;;;;;;21.20;4.60;;;21.10;72.10;;;;;;5018162;28;20595;-77
2023/08/30 01:32:34;;;;;;;17.88;4.85;;;21.10;72.50;;;;;;5033468;28;20029;-77
2023/08/30 01:35:01;;;;;;;16.85;4.38;;;21.10;72.40;;;;;;5033771;28;20057;-79
2023/08/30 01:37:27;;;;;;;15.63;5.38;;;21.10;72.70;;;;;;5043973;28;20033;-79
2023/08/30 01:39:56;;;;;;;17.25;4.60;;;21.00;72.90;;;;;;5053293;28;20186;-76
2023/08/30 01:42:24;;;;;;;19.77;5.28;;;21.10;73.30;;;;;;5053255;28;20063;-75
2023/08/30 01:44:57;;;;;;;20.15;4.72;;;21.10;73.00;;;;;;5052628;28;20443;-77
2023/08/30 01:47:25;;;;;;;15.35;4.45;;;21.00;73.10;;;;;;5053261;28;20047;-77
2023/08/30 01:49:52;;;;;;;14.23;3.78;;;21.00;73.20;;;;;;5052207;28;20053;-76
2023/08/30 01:52:19;;;;;;;16.55;4.65;;;21.10;73.50;;;;;;5053419;28;20037;-77
2023/08/30 01:54:46;;;;;;;17.58;4.50;;;21.10;73.60;;;;;;5053190;28;20449;-76
2023/08/30 01:57:12;;;;;;;18.92;5.30;;;21.10;73.70;;;;;;5035482;28;20384;-77
2023/08/30 01:59:38;;;;;;;18.75;5.35;;;21.00;73.70;;;;;;5052929;28;20037;-77
2023/08/30 02:02:04;;;;;;;22.63;5.05;;;21.00;73.70;;;;;;5053198;28;20079;-80
2023/08/30 02:04:31;;;;;;;15.70;5.28;;;21.10;73.50;;;;;;5035268;28;20102;-75
2023/08/30 02:07:02;;;;;;;18.95;4.50;;;21.00;73.20;;;;;;5052840;28;20045;-77
2023/08/30 02:09:37;;;;;;;13.55;3.38;;;21.00;72.80;;;;;;5053046;28;20029;-75
2023/08/30 02:12:07;;;;;;;15.30;3.92;;;20.90;72.50;;;;;;5053535;28;20037;-76
2023/08/30 02:14:33;;;;;;;15.32;3.78;;;20.90;72.50;;;;;;5052653;28;20049;-77
2023/08/30 02:16:59;;;;;;;14.43;3.15;;;20.80;72.10;;;;;;5052938;28;20135;-78
2023/08/30 02:19:25;;;;;;;15.05;3.85;;;20.70;72.00;;;;;;5035519;28;20120;-80
2023/08/30 02:21:51;;;;;;;16.27;3.30;;;20.70;72.00;;;;;;5053540;28;20021;-77
2023/08/30 02:24:17;;;;;;;13.43;3.60;;;20.60;72.10;;;;;;5052738;28;20124;-77
2023/08/30 02:26:43;;;;;;;15.07;3.88;;;20.60;72.40;;;;;;5052649;28;20399;-78
2023/08/30 02:29:09;;;;;;;22.15;3.97;;;20.60;72.20;;;;;;5052555;28;20464;-79
2023/08/30 02:31:35;;;;;;;9.90;3.30;;;20.60;72.00;;;;;;5052525;28;20048;-77
2023/08/30 02:34:02;;;;;;;14.02;3.55;;;20.50;72.20;;;;;;5052683;28;20076;-77
2023/08/30 02:36:28;;;;;;;12.88;3.40;;;20.40;72.30;;;;;;5052564;28;20021;-78
2023/08/30 02:38:53;;;;;;;15.43;3.75;;;20.40;72.50;;;;;;5052329;28;20032;-78
2023/08/30 02:41:19;;;;;;;11.10;3.25;;;20.40;72.60;;;;;;5034554;28;20129;-78
2023/08/30 02:43:45;;;;;;;20.25;4.20;;;20.40;72.70;;;;;;5034697;28;20435;-77
2023/08/30 02:46:10;;;;;;;12.15;3.35;;;20.40;72.70;;;;;;5034814;28;20048;-80
2023/08/30 02:48:36;;;;;;;20.63;4.05;;;20.40;72.80;;;;;;5052418;28;20151;-76
2023/08/30 02:51:02;;;;;;;12.10;3.00;;;20.40;72.80;;;;;;5034092;28;20086;-77
2023/08/30 02:53:27;;;;;;;13.20;2.95;;;20.30;72.80;;;;;;5034045;28;20048;-79
2023/08/30 02:55:55;;;;;;;17.15;3.72;;;20.30;73.00;;;;;;5051697;28;20041;-77
2023/08/30 02:58:21;;;;;;;15.63;3.58;;;20.40;73.20;;;;;;5051991;28;20087;-78
2023/08/30 03:00:47;;;;;;;11.15;2.85;;;20.40;73.30;;;;;;5051953;28;20071;-77
2023/08/30 03:03:12;;;;;;;12.90;3.25;;;20.30;73.50;;;;;;5052269;28;20104;-77
2023/08/30 03:05:38;;;;;;;13.38;3.22;;;20.20;73.60;;;;;;5057695;28;20040;-76
2023/08/30 03:08:04;;;;;;;15.48;3.45;;;20.20;73.80;;;;;;5071617;28;20033;-76
2023/08/30 03:10:30;;;;;;;13.98;3.05;;;20.20;74.10;;;;;;5070097;28;20048;-77
2023/08/30 03:12:55;;;;;;;18.05;3.55;;;20.20;73.90;;;;;;5071775;28;20041;-77
2023/08/30 03:15:21;;;;;;;15.68;3.03;;;20.10;73.90;;;;;;5070779;28;20047;-78
2023/08/30 03:17:47;;;;;;;18.02;3.40;;;20.20;74.10;;;;;;5071941;28;20504;-78
2023/08/30 03:20:12;;;;;;;13.00;3.45;;;20.20;74.00;;;;;;5071966;28;20040;-77
2023/08/30 03:22:38;;;;;;;17.40;4.00;;;20.30;74.20;;;;;;5072138;28;20044;-76
2023/08/30 03:25:04;;;;;;;14.90;3.30;;;20.30;73.90;;;;;;5071876;28;20037;-76
2023/08/30 03:27:30;;;;;;;10.73;3.38;;;20.20;73.90;;;;;;5072781;28;20043;-76
2023/08/30 03:29:56;;;;;;;12.13;3.40;;;20.20;74.30;;;;;;5093403;28;20032;-76
2023/08/30 03:32:22;;;;;;;15.43;3.55;;;20.20;74.10;;;;;;5092150;28;20035;-78
2023/08/30 03:34:48;;;;;;;13.32;3.42;;;20.20;74.20;;;;;;5075427;28;20055;-76
2023/08/30 03:37:17;;;;;;;15.85;3.70;;;20.20;74.10;;;;;;5071872;28;20112;-77
2023/08/30 03:39:43;;;;;;;15.32;3.28;;;20.20;74.20;;;;;;5070548;28;20064;-78
2023/08/30 03:42:09;;;;;;;20.55;4.35;;;20.20;74.50;;;;;;5071757;28;20520;-78
2023/08/30 03:44:35;;;;;;;13.10;4.10;;;20.20;74.30;;;;;;5071507;28;20408;-77
2023/08/30 03:47:00;;;;;;;12.93;3.67;;;20.20;74.50;;;;;;5071652;28;20032;-77
2023/08/30 03:49:26;;;;;;;14.07;3.65;;;20.30;74.40;;;;;;5072005;28;20032;-77
2023/08/30 03:51:52;;;;;;;17.85;4.32;;;20.20;74.10;;;;;;5071634;28;20514;-79
2023/08/30 03:54:17;;;;;;;15.52;3.65;;;20.20;74.30;;;;;;5071649;28;20048;-78
2023/08/30 03:56:44;;;;;;;17.42;3.50;;;20.20;74.40;;;;;;5071460;28;20035;-77
2023/08/30 03:59:10;;;;;;;9.80;2.85;;;20.20;74.20;;;;;;5071481;28;20036;-77
2023/08/30 04:01:36;;;;;;;15.27;3.58;;;20.20;74.40;;;;;;5071813;28;20040;-79
2023/08/30 04:04:02;;;;;;;16.80;3.38;;;20.20;74.40;;;;;;5071825;28;20028;-77
2023/08/30 04:06:28;;;;;;;12.55;3.55;;;20.20;74.60;;;;;;5070908;28;20052;-78
2023/08/30 04:08:53;;;;;;;18.23;3.67;;;20.10;74.50;;;;;;5074947;28;20545;-77
2023/08/30 04:11:19;;;;;;;13.20;3.55;;;20.10;74.70;;;;;;5075373;28;20116;-77
2023/08/30 04:13:45;;;;;;;16.58;3.88;;;20.10;74.80;;;;;;5075273;28;20404;-77
2023/08/30 04:16:11;;;;;;;15.70;3.70;;;20.00;74.60;;;;;;5075211;28;20094;-80
2023/08/30 04:18:36;;;;;;;13.70;3.97;;;20.00;74.80;;;;;;5075092;28;20192;-79
2023/08/30 04:21:02;;;;;;;14.50;3.45;;;20.00;74.90;;;;;;5075457;28;20025;-77
2023/08/30 04:23:29;;;;;;;13.77;3.28;;;20.00;74.80;;;;;;5075098;28;20488;-78
2023/08/30 04:25:55;;;;;;;15.93;3.70;;;20.00;74.80;;;;;;5074789;28;20083;-78
2023/08/30 04:28:21;;;;;;;15.88;3.42;;;20.00;74.60;;;;;;5074970;28;20047;-79
2023/08/30 04:30:47;;;;;;;16.75;4.07;;;20.00;74.70;;;;;;5075085;28;20037;-78
2023/08/30 04:33:13;;;;;;;13.30;3.45;;;20.00;74.70;;;;;;5074693;28;20044;-77
2023/08/30 04:35:39;;;;;;;15.70;3.72;;;20.00;74.70;;;;;;5075032;28;20037;-78
2023/08/30 04:38:05;;;;;;;14.27;3.63;;;20.00;74.70;;;;;;5074658;28;20538;-77
2023/08/30 04:40:32;;;;;;;13.65;3.60;;;20.00;74.70;;;;;;5074943;28;20101;-77
2023/08/30 04:43:00;;;;;;;13.30;3.63;;;20.00;74.70;;;;;;5074690;28;20055;-79
2023/08/30 04:45:27;;;;;;;12.43;3.60;;;20.00;75.00;;;;;;5074799;28;20029;-77
2023/08/30 04:47:53;;;;;;;16.83;4.28;;;19.90;75.10;;;;;;5074547;28;20370;-78
2023/08/30 04:50:19;;;;;;;12.45;3.60;;;20.00;75.20;;;;;;5074728;28;20039;-78
2023/08/30 04:52:44;;;;;;;17.13;3.92;;;19.90;75.20;;;;;;5074474;28;20028;-78
2023/08/30 04:55:10;;;;;;;16.38;3.65;;;19.90;75.20;;;;;;5074605;28;20032;-78
2023/08/30 04:57:36;;;;;;;11.20;2.88;;;19.90;75.50;;;;;;5074587;28;20484;-79
2023/08/30 05:00:04;;;;;;;12.00;3.03;;;19.90;75.30;;;;;;5073090;28;20033;-78
2023/08/30 05:02:30;;;;;;;9.95;3.25;;;19.90;75.50;;;;;;5074707;28;20064;-79
2023/08/30 05:04:56;;;;;;;12.02;2.95;;;19.80;75.30;;;;;;5089465;28;20117;-78
2023/08/30 05:07:22;;;;;;;14.40;3.55;;;19.80;75.60;;;;;;5074138;28;20039;-79
2023/08/30 05:09:47;;;;;;;10.23;2.63;;;19.80;75.40;;;;;;5074413;28;20035;-79
2023/08/30 05:12:13;;;;;;;16.63;3.13;;;19.90;75.30;;;;;;5073936;28;20423;-77
2023/08/30 05:14:40;;;;;;;12.82;3.22;;;19.80;75.10;;;;;;5074153;28;20140;-77
2023/08/30 05:17:07;;;;;;;18.52;4.10;;;19.90;75.10;;;;;;5073999;28;20052;-78
2023/08/30 05:19:33;;;;;;;12.32;3.45;;;19.90;74.90;;;;;;5073756;28;20043;-76
2023/08/30 05:21:58;;;;;;;13.25;3.28;;;20.00;74.90;;;;;;5072641;28;20081;-78
2023/08/30 05:24:26;;;;;;;11.40;3.15;;;19.90;74.60;;;;;;5073926;28;20031;-77
2023/08/30 05:26:52;;;;;;;15.57;3.53;;;20.00;74.50;;;;;;5074476;28;20024;-79
2023/08/30 05:29:18;;;;;;;13.73;3.22;;;20.10;74.60;;;;;;5072885;28;20059;-77
2023/08/30 05:31:47;;;;;;;11.30;3.13;;;20.10;74.00;;;;;;5073608;28;20434;-79
2023/08/30 05:34:12;;;;;;;17.67;3.88;;;20.10;74.30;;;;;;5071874;28;20080;-78
2023/08/30 05:36:38;;;;;;;18.75;3.85;;;20.20;74.10;;;;;;5078048;28;20028;-75
2023/08/30 05:39:04;;;;;;;14.32;3.20;;;20.10;73.70;;;;;;5078336;28;20036;-75
2023/08/30 05:41:30;;;;;;;13.82;3.20;;;20.20;74.00;;;;;;5072019;28;20468;-72
2023/08/30 05:43:56;;;;;;;14.65;3.53;;;20.20;73.90;;;;;;5073513;28;20067;-76
2023/08/30 05:46:21;;;;;;;13.60;3.58;;;20.30;73.80;;;;;;5073567;28;20484;-75
2023/08/30 05:48:47;;;;;;;15.60;3.38;;;20.40;73.40;;;;;;5072630;28;20038;-76
2023/08/30 05:51:13;;;;;;;14.38;3.58;;;20.60;73.10;;;;;;5073328;28;20052;-81
2023/08/30 05:53:41;;;;;;;14.23;3.47;;;20.80;72.80;;;;;;5073470;28;20054;-77
2023/08/30 05:56:07;;;;;;;14.90;2.97;;;21.10;72.40;;;;;;5055702;28;20124;-78
2023/08/30 05:58:33;;;;;;;13.07;3.22;;;21.40;71.80;;;;;;5073636;28;20060;-76
2023/08/30 06:01:00;;;;;;;12.95;3.97;;;21.70;70.80;;;;;;5073446;28;20020;-76
2023/08/30 06:03:26;;;;;;;16.05;3.35;;;22.00;70.20;;;;;;5055456;28;20392;-78
